createdAt,value
2022-08-16T00:02:22.266Z,79.54
2022-08-16T00:04:51.165Z,80.34
2022-08-16T00:07:17.765Z,82.06
2022-08-16T00:09:43.595Z,82.49
2022-08-16T00:12:10.071Z,83.00
2022-08-16T00:14:36.015Z,82.16
2022-08-16T00:17:18.672Z,82.94
2022-08-16T00:19:46.227Z,82.93
2022-08-16T00:22:13.768Z,83.68
2022-08-16T00:24:44.925Z,85.43
2022-08-16T00:27:13.077Z,85.83
2022-08-16T00:29:38.947Z,85.50
2022-08-16T00:32:06.675Z,86.69
2022-08-16T00:34:43.687Z,86.17
2022-08-16T00:37:20.489Z,85.02
2022-08-16T00:39:47.883Z,85.59
2022-08-16T00:42:30.345Z,85.02
2022-08-16T00:45:08.639Z,85.74
2022-08-16T00:47:38.757Z,86.06
2022-08-16T00:50:11.377Z,86.32
2022-08-16T00:52:50.142Z,86.15
2022-08-16T00:55:16.955Z,86.64
2022-08-16T00:58:00.190Z,86.62
2022-08-16T01:00:32.103Z,85.84
2022-08-16T01:03:02.490Z,85.80
2022-08-16T01:05:30.224Z,86.67
2022-08-16T01:07:59.761Z,86.83
2022-08-16T01:10:32.965Z,86.47
2022-08-16T01:13:15.195Z,86.36
2022-08-16T01:15:48.346Z,86.28
2022-08-16T01:18:40.013Z,86.87
2022-08-16T01:21:24.945Z,86.50
2022-08-16T01:24:52.964Z,86.25
2022-08-16T01:27:03.973Z,87.02
2022-08-16T01:29:58.369Z,86.26
2022-08-16T01:32:31.530Z,87.26
2022-08-16T01:35:00.255Z,86.98
2022-08-16T01:37:26.890Z,86.73
2022-08-16T01:40:03.390Z,86.32
2022-08-16T01:42:33.075Z,86.05
2022-08-16T01:44:59.985Z,86.58
2022-08-16T01:47:27.084Z,86.16
2022-08-16T01:50:43.608Z,86.36
2022-08-16T01:52:42.112Z,87.10
2022-08-16T01:55:12.490Z,86.77
2022-08-16T01:57:40.704Z,86.59
2022-08-16T02:00:20.294Z,87.17
2022-08-16T02:02:54.908Z,87.38
2022-08-16T02:05:21.150Z,87.04
2022-08-16T02:07:49.786Z,86.79
2022-08-16T02:10:18.225Z,86.43
2022-08-16T02:12:51.083Z,86.99
2022-08-16T02:15:24.731Z,87.07
2022-08-16T02:17:52.521Z,87.50
2022-08-16T02:20:26.395Z,87.38
2022-08-16T02:22:55.495Z,87.40
2022-08-16T02:25:21.885Z,87.99
2022-08-16T02:27:51.010Z,87.66
2022-08-16T02:30:36.924Z,87.58
2022-08-16T02:33:08.947Z,88.18
2022-08-16T02:35:49.891Z,87.77
2022-08-16T02:38:21.403Z,87.74
2022-08-16T02:40:47.683Z,88.14
2022-08-16T02:43:15.300Z,87.85
2022-08-16T02:45:41.219Z,87.60
2022-08-16T02:48:29.282Z,88.74
2022-08-16T02:51:10.170Z,88.93
2022-08-16T02:53:39.326Z,88.21
2022-08-16T02:56:06.324Z,88.35
2022-08-16T02:58:36.183Z,88.95
2022-08-16T03:01:03.251Z,89.79
2022-08-16T03:04:29.849Z,90.49
2022-08-16T03:06:42.003Z,90.04
2022-08-16T03:09:05.825Z,90.37
2022-08-16T03:11:35.357Z,90.16
2022-08-16T03:14:01.983Z,91.18
2022-08-16T03:16:39.114Z,91.42
2022-08-16T03:19:19.238Z,91.78
2022-08-16T03:21:48.697Z,91.50
2022-08-16T03:24:28.757Z,91.48
2022-08-16T03:27:01.757Z,90.99
2022-08-16T03:29:31.818Z,91.19
2022-08-16T03:32:01.898Z,91.61
2022-08-16T03:34:29.867Z,90.65
2022-08-16T03:36:56.598Z,90.74
2022-08-16T03:39:22.694Z,91.24
2022-08-16T03:41:50.280Z,90.76
2022-08-16T03:44:44.571Z,90.77
2022-08-16T03:47:03.689Z,91.02
2022-08-16T03:49:36.580Z,90.66
2022-08-16T03:52:03.527Z,91.02
2022-08-16T03:54:29.674Z,91.50
2022-08-16T03:56:57.138Z,91.61
2022-08-16T03:59:24.194Z,91.64
2022-08-16T04:01:50.027Z,91.15
2022-08-16T04:04:32.266Z,90.96
2022-08-16T04:06:58.741Z,90.77
2022-08-16T04:09:24.578Z,90.95
2022-08-16T04:11:52.307Z,91.23
2022-08-16T04:14:31.084Z,90.72
2022-08-16T04:17:00.243Z,90.95
2022-08-16T04:19:31.741Z,90.81
2022-08-16T04:21:57.918Z,90.88
2022-08-16T04:24:28.761Z,91.51
2022-08-16T04:26:55.028Z,91.63
2022-08-16T04:29:21.774Z,92.17
2022-08-16T04:31:56.095Z,91.61
2022-08-16T04:34:29.335Z,92.15
2022-08-16T04:36:57.278Z,91.31
2022-08-16T04:39:24.149Z,90.86
2022-08-16T04:41:50.573Z,90.86
2022-08-16T04:44:52.707Z,91.76
2022-08-16T04:47:21.465Z,90.62
2022-08-16T04:49:50.299Z,91.37
2022-08-16T04:52:32.641Z,90.60
2022-08-16T04:55:06.508Z,90.65
2022-08-16T04:57:33.852Z,90.61
2022-08-16T04:59:59.708Z,90.29
2022-08-16T05:02:56.417Z,91.06
2022-08-16T05:05:25.150Z,89.58
2022-08-16T05:07:58.192Z,88.95
2022-08-16T05:10:27.626Z,89.60
2022-08-16T05:12:53.669Z,89.64
2022-08-16T05:15:19.587Z,89.54
2022-08-16T05:17:47.643Z,88.31
2022-08-16T05:20:38.622Z,88.52
2022-08-16T05:23:12.076Z,88.47
2022-08-16T05:25:48.054Z,88.84
2022-08-16T05:28:15.750Z,88.33
2022-08-16T05:30:41.569Z,87.45
2022-08-16T05:33:16.313Z,87.87
2022-08-16T05:35:43.603Z,88.02
2022-08-16T05:38:30.973Z,87.31
2022-08-16T05:41:00.211Z,87.75
2022-08-16T05:43:27.151Z,86.91
2022-08-16T05:45:59.126Z,86.96
2022-08-16T05:48:26.896Z,86.80
2022-08-16T05:50:53.444Z,86.58
2022-08-16T05:53:19.290Z,87.44
2022-08-16T05:55:48.351Z,87.33
2022-08-16T05:58:31.790Z,86.55
2022-08-16T06:00:59.279Z,87.05
2022-08-16T06:03:25.164Z,86.37
2022-08-16T06:05:50.979Z,85.88
2022-08-16T06:08:31.625Z,86.08
2022-08-16T06:11:02.648Z,85.37
2022-08-16T06:13:37.048Z,85.38
2022-08-16T06:16:04.769Z,85.15
2022-08-16T06:18:32.643Z,86.10
2022-08-16T06:20:58.682Z,86.35
2022-08-16T06:23:25.910Z,84.80
2022-08-16T06:25:53.551Z,85.43
2022-08-16T06:28:34.921Z,85.54
2022-08-16T06:31:03.854Z,85.56
2022-08-16T06:33:41.339Z,85.87
2022-08-16T06:38:36.410Z,84.34
2022-08-16T06:41:13.658Z,84.14
2022-08-16T06:43:40.972Z,85.02
2022-08-16T06:46:10.063Z,84.80
2022-08-16T06:48:37.141Z,83.49
2022-08-16T06:51:09.134Z,84.21
2022-08-16T06:53:36.659Z,83.50
2022-08-16T06:56:06.144Z,83.17
2022-08-16T06:58:41.345Z,83.51
2022-08-16T07:01:14.788Z,83.30
2022-08-16T07:03:54.580Z,82.41
2022-08-16T07:06:26.703Z,82.28
2022-08-16T07:08:54.525Z,82.13
2022-08-16T07:11:20.353Z,81.59
2022-08-16T07:14:26.498Z,81.48
2022-08-16T07:16:52.609Z,81.43
2022-08-16T07:19:18.444Z,80.64
2022-08-16T07:21:59.041Z,80.99
2022-08-16T07:24:30.565Z,80.80
2022-08-16T07:26:58.895Z,79.99
2022-08-16T07:29:27.065Z,79.89
2022-08-16T07:31:58.789Z,80.34
2022-08-16T07:34:35.847Z,79.51
2022-08-16T07:37:10.209Z,78.68
2022-08-16T07:39:43.428Z,78.50
2022-08-16T07:42:11.059Z,78.05
2022-08-16T07:44:51.863Z,78.26
2022-08-16T07:47:17.806Z,77.82
2022-08-16T07:49:49.847Z,79.12
2022-08-16T07:52:20.688Z,78.71
2022-08-16T07:54:48.930Z,77.69
2022-08-16T07:57:15.589Z,77.75
2022-08-16T07:59:46.448Z,77.13
2022-08-16T08:02:13.463Z,76.78
2022-08-16T08:04:46.947Z,77.91
2022-08-16T08:07:14.159Z,77.50
2022-08-16T08:09:43.293Z,76.78
2022-08-16T08:12:09.568Z,76.44
2022-08-16T08:14:55.385Z,75.92
2022-08-16T08:17:22.170Z,75.14
2022-08-16T08:19:53.291Z,74.96
2022-08-16T08:22:22.187Z,74.58
2022-08-16T08:24:48.697Z,74.42
2022-08-16T08:27:22.807Z,75.04
2022-08-16T08:30:50.029Z,74.98
2022-08-16T08:32:57.481Z,74.05
2022-08-16T08:35:26.933Z,73.74
2022-08-16T08:37:56.266Z,73.94
2022-08-16T08:40:26.715Z,73.46
2022-08-16T08:43:00.613Z,72.83
2022-08-16T08:45:47.368Z,72.44
2022-08-16T08:48:33.329Z,72.05
2022-08-16T08:51:01.772Z,71.42
2022-08-16T08:53:30.554Z,71.65
2022-08-16T08:55:58.736Z,70.87
2022-08-16T08:58:24.810Z,71.03
2022-08-16T09:01:02.300Z,71.38
2022-08-16T09:03:28.397Z,70.79
2022-08-16T09:05:58.782Z,70.33
2022-08-16T09:08:26.621Z,68.85
2022-08-16T09:10:58.707Z,67.86
2022-08-16T09:13:28.289Z,68.08
2022-08-16T09:15:58.557Z,66.92
2022-08-16T09:18:27.211Z,67.34
2022-08-16T09:21:02.273Z,66.01
2022-08-16T09:23:36.441Z,66.68
2022-08-16T09:26:44.693Z,65.39
2022-08-16T09:29:15.019Z,65.06
2022-08-16T09:31:37.217Z,63.12
2022-08-16T09:34:07.122Z,63.25
2022-08-16T09:36:34.418Z,62.29
2022-08-16T09:39:02.624Z,60.49
2022-08-16T09:41:28.565Z,60.21
2022-08-16T09:44:00.251Z,60.66
2022-08-16T09:46:49.055Z,61.69
2022-08-16T09:49:16.651Z,60.77
2022-08-16T09:51:54.248Z,61.39
2022-08-16T09:54:23.413Z,59.91
2022-08-16T09:56:52.118Z,58.33
2022-08-16T09:59:21.038Z,58.26
2022-08-16T10:01:48.364Z,56.35
2022-08-16T10:04:31.538Z,55.86
2022-08-16T10:09:44.885Z,55.24
2022-08-16T10:12:42.568Z,54.39
2022-08-16T10:15:09.974Z,51.29
2022-08-16T10:17:42.099Z,50.98
2022-08-16T10:20:10.672Z,49.71
2022-08-16T10:22:44.308Z,49.06
2022-08-16T10:25:10.824Z,48.72
2022-08-16T10:28:05.922Z,47.35
2022-08-16T10:30:43.350Z,47.02
2022-08-16T10:33:12.851Z,46.51
2022-08-16T10:35:46.634Z,45.78
2022-08-16T10:38:27.066Z,44.92
2022-08-16T10:40:53.973Z,44.92
2022-08-16T10:43:20.437Z,46.19
2022-08-16T10:45:59.780Z,46.81
2022-08-16T10:48:28.815Z,45.06
2022-08-16T10:50:57.521Z,44.21
2022-08-16T10:53:33.148Z,44.15
2022-08-16T10:56:52.451Z,43.65
2022-08-16T10:58:57.185Z,42.08
2022-08-16T11:01:43.194Z,40.91
2022-08-16T11:09:43.729Z,37.93
2022-08-16T11:12:14.004Z,37.37
2022-08-16T11:15:11.355Z,37.51
2022-08-16T11:17:26.829Z,38.49
2022-08-16T11:22:47.663Z,38.48
2022-08-16T11:28:09.946Z,36.33
2022-08-16T11:30:38.708Z,34.60
2022-08-16T11:33:06.410Z,34.53
2022-08-16T11:38:46.621Z,35.92
2022-08-16T11:41:08.369Z,35.15
2022-08-16T11:43:38.091Z,35.68
2022-08-16T11:46:44.162Z,35.64
2022-08-16T11:48:54.468Z,34.92
2022-08-16T11:51:20.725Z,33.93
2022-08-16T11:53:46.574Z,34.28
2022-08-16T11:56:12.613Z,33.12
2022-08-16T11:58:42.096Z,33.08
2022-08-16T12:01:08.019Z,35.82
2022-08-16T12:03:36.839Z,35.39
2022-08-16T12:06:25.269Z,34.24
2022-08-16T12:09:01.987Z,33.64
2022-08-16T12:11:28.891Z,33.23
2022-08-16T12:14:01.738Z,32.86
2022-08-16T12:16:34.425Z,32.02
2022-08-16T12:19:04.558Z,31.93
2022-08-16T12:21:36.122Z,31.81
2022-08-16T12:24:17.457Z,31.64
2022-08-16T12:26:43.404Z,32.28
2022-08-16T12:29:09.886Z,32.49
2022-08-16T12:31:36.417Z,32.13
2022-08-16T12:34:06.658Z,30.74
2022-08-16T12:36:36.538Z,29.07
2022-08-16T12:39:04.796Z,28.54
2022-08-16T12:41:36.860Z,28.96
2022-08-16T12:44:04.912Z,29.40
2022-08-16T12:46:33.051Z,29.71
2022-08-16T12:49:01.027Z,29.46
2022-08-16T12:51:59.804Z,30.01
2022-08-16T12:54:22.282Z,29.99
2022-08-16T12:56:48.223Z,29.32
2022-08-16T12:59:20.359Z,27.62
2022-08-16T13:01:48.017Z,26.52
2022-08-16T13:04:21.012Z,26.59
2022-08-16T13:06:52.428Z,27.77
2022-08-16T13:09:20.840Z,28.84
2022-08-16T13:12:06.735Z,30.44
2022-08-16T13:14:37.630Z,32.56
2022-08-16T13:17:07.662Z,32.90
2022-08-16T13:19:56.378Z,33.36
2022-08-16T13:22:21.777Z,32.97
2022-08-16T13:24:47.879Z,31.12
2022-08-16T13:27:13.939Z,31.20
2022-08-16T13:29:39.998Z,31.21
2022-08-16T13:32:10.216Z,30.74
2022-08-16T13:34:56.016Z,29.93
2022-08-16T13:37:22.710Z,29.59
2022-08-16T13:39:48.545Z,29.63
2022-08-16T13:42:14.547Z,29.50
2022-08-16T13:44:55.988Z,29.05
2022-08-16T13:47:22.622Z,28.72
2022-08-16T13:49:50.726Z,29.28
2022-08-16T13:52:17.867Z,29.66
2022-08-16T13:54:44.440Z,29.04
2022-08-16T13:57:11.719Z,30.60
2022-08-16T13:59:38.341Z,29.86
2022-08-16T14:02:07.817Z,29.33
2022-08-16T14:04:36.929Z,29.19
2022-08-16T14:07:06.616Z,29.14
2022-08-16T14:09:35.719Z,29.01
2022-08-16T14:12:09.892Z,28.91
2022-08-16T14:14:44.093Z,28.25
2022-08-16T14:17:09.993Z,28.38
2022-08-16T14:19:36.216Z,28.53
2022-08-16T14:22:14.404Z,28.12
2022-08-16T14:24:45.372Z,27.44
2022-08-16T14:27:14.697Z,27.08
2022-08-16T14:29:41.558Z,26.99
2022-08-16T14:32:08.021Z,27.51
2022-08-16T14:34:35.106Z,26.93
2022-08-16T14:37:04.537Z,26.78
2022-08-16T14:39:32.817Z,26.31
2022-08-16T14:42:08.176Z,26.79
2022-08-16T14:44:37.079Z,26.04
2022-08-16T14:47:05.733Z,26.35
2022-08-16T14:49:33.822Z,26.57
2022-08-16T14:52:06.224Z,26.83
2022-08-16T14:54:32.903Z,27.63
2022-08-16T14:56:58.998Z,27.26
2022-08-16T14:59:25.458Z,27.06
2022-08-16T15:01:59.487Z,27.19
2022-08-16T15:04:40.518Z,27.30
2022-08-16T15:07:15.543Z,26.97
2022-08-16T15:09:44.608Z,27.30
2022-08-16T15:12:31.066Z,27.62
2022-08-16T15:15:04.277Z,27.28
2022-08-16T15:17:40.410Z,26.63
2022-08-16T15:20:08.809Z,26.38
2022-08-16T15:22:39.964Z,26.47
2022-08-16T15:25:21.842Z,26.96
2022-08-16T15:27:54.678Z,27.07
2022-08-16T15:30:47.843Z,27.02
2022-08-16T15:33:14.929Z,26.37
2022-08-16T15:35:42.321Z,26.96
2022-08-16T15:38:09.207Z,27.19
2022-08-16T15:40:52.046Z,27.55
2022-08-16T15:43:23.882Z,28.11
2022-08-16T15:46:54.315Z,27.88
2022-08-16T15:49:04.154Z,27.67
2022-08-16T15:51:30.611Z,28.31
2022-08-16T15:54:21.191Z,28.32
2022-08-16T15:56:42.666Z,29.64
2022-08-16T15:59:08.569Z,28.84
2022-08-16T16:01:35.524Z,28.50
2022-08-16T16:04:01.473Z,28.86
2022-08-16T16:06:29.316Z,28.96
2022-08-16T16:08:55.197Z,29.44
2022-08-16T16:11:21.086Z,28.56
2022-08-16T16:13:51.897Z,28.57
2022-08-16T16:16:19.693Z,28.59
2022-08-16T16:18:48.968Z,28.44
2022-08-16T16:21:20.464Z,28.29
2022-08-16T16:23:54.855Z,29.07
2022-08-16T16:26:23.827Z,28.50
2022-08-16T16:29:08.640Z,28.54
2022-08-16T16:31:38.190Z,28.58
2022-08-16T16:34:06.101Z,28.51
2022-08-16T16:36:33.775Z,28.49
2022-08-16T16:39:02.024Z,28.03
2022-08-16T16:41:30.435Z,28.65
2022-08-16T16:43:57.867Z,29.25
2022-08-16T16:46:40.388Z,28.80
2022-08-16T16:49:11.621Z,29.25
2022-08-16T16:51:40.372Z,29.60
2022-08-16T16:54:08.595Z,29.61
2022-08-16T16:56:37.534Z,29.88
2022-08-16T16:59:09.072Z,30.05
2022-08-16T17:02:00.016Z,30.22
2022-08-16T17:04:31.943Z,30.88
2022-08-16T17:07:00.648Z,30.48
2022-08-16T17:09:26.648Z,30.49
2022-08-16T17:11:55.522Z,30.46
2022-08-16T17:14:32.708Z,30.67
2022-08-16T17:17:03.425Z,30.68
2022-08-16T17:19:31.746Z,30.65
2022-08-16T17:21:58.188Z,31.06
2022-08-16T17:24:39.467Z,30.71
2022-08-16T17:27:07.707Z,30.38
2022-08-16T17:29:34.760Z,30.59
2022-08-16T17:32:34.383Z,30.69
2022-08-16T17:35:09.862Z,31.56
2022-08-16T17:37:48.812Z,32.13
2022-08-16T17:40:25.845Z,32.94
2022-08-16T17:43:04.825Z,34.01
2022-08-16T17:45:32.413Z,34.51
2022-08-16T17:47:58.419Z,34.89
2022-08-16T17:50:24.327Z,35.22
2022-08-16T17:52:53.586Z,37.33
2022-08-16T17:55:28.555Z,37.76
2022-08-16T17:57:54.517Z,38.55
2022-08-16T18:00:21.824Z,38.62
2022-08-16T18:02:52.542Z,38.79
2022-08-16T18:05:19.640Z,39.46
2022-08-16T18:07:46.630Z,40.05
2022-08-16T18:10:14.033Z,40.67
2022-08-16T18:12:56.793Z,40.48
2022-08-16T18:15:24.463Z,40.68
2022-08-16T18:17:52.342Z,41.00
2022-08-16T18:20:41.509Z,41.33
2022-08-16T18:23:23.793Z,41.98
2022-08-16T18:25:54.457Z,41.91
2022-08-16T18:28:20.600Z,41.98
2022-08-16T18:30:51.042Z,42.00
2022-08-16T18:33:18.174Z,41.84
2022-08-16T18:35:44.400Z,42.53
2022-08-16T18:38:10.738Z,42.98
2022-08-16T18:40:37.142Z,42.67
2022-08-16T18:43:04.705Z,42.86
2022-08-16T18:45:35.350Z,42.98
2022-08-16T18:48:03.219Z,43.36
2022-08-16T18:50:29.155Z,43.43
2022-08-16T18:53:18.119Z,43.63
2022-08-16T18:55:45.656Z,43.68
2022-08-16T18:58:14.778Z,43.69
2022-08-16T19:00:56.043Z,43.94
2022-08-16T19:03:26.844Z,44.16
2022-08-16T19:06:11.297Z,44.51
2022-08-16T19:08:40.136Z,44.76
2022-08-16T19:11:08.727Z,44.92
2022-08-16T19:13:35.720Z,45.39
2022-08-16T19:16:03.132Z,45.37
2022-08-16T19:18:30.398Z,45.86
2022-08-16T19:21:04.627Z,45.99
2022-08-16T19:23:33.717Z,46.16
2022-08-16T19:26:06.463Z,45.95
2022-08-16T19:28:51.734Z,46.00
2022-08-16T19:31:25.638Z,45.86
2022-08-16T19:33:55.004Z,46.48
2022-08-16T19:36:35.443Z,46.68
2022-08-16T19:39:06.601Z,46.87
2022-08-16T19:41:39.648Z,46.71
2022-08-16T19:44:06.389Z,47.08
2022-08-16T19:46:32.948Z,46.71
2022-08-16T19:48:59.186Z,47.06
2022-08-16T19:51:25.047Z,46.78
2022-08-16T19:53:51.023Z,48.01
2022-08-16T19:56:17.966Z,48.55
2022-08-16T19:59:08.717Z,48.66
2022-08-16T20:01:30.133Z,48.38
2022-08-16T20:03:56.103Z,48.45
2022-08-16T20:06:37.650Z,48.68
2022-08-16T20:09:04.429Z,48.72
2022-08-16T20:11:30.250Z,48.36
2022-08-16T20:13:56.084Z,47.84
2022-08-16T20:16:22.115Z,48.28
2022-08-16T20:18:47.995Z,48.56
2022-08-16T20:21:13.865Z,48.98
2022-08-16T20:23:40.111Z,49.10
2022-08-16T20:26:05.976Z,48.97
2022-08-16T20:28:40.752Z,49.15
2022-08-16T20:31:17.740Z,48.93
2022-08-16T20:33:43.619Z,48.99
2022-08-16T20:36:09.491Z,48.78
2022-08-16T20:38:46.162Z,48.80
2022-08-16T20:41:12.332Z,49.43
2022-08-16T20:43:38.190Z,49.71
2022-08-16T20:46:04.199Z,49.64
2022-08-16T20:48:30.193Z,50.24
2022-08-16T20:50:56.109Z,50.58
2022-08-16T20:53:22.232Z,50.80
2022-08-16T20:55:48.601Z,50.74
2022-08-16T20:58:14.956Z,51.15
2022-08-16T21:00:41.046Z,50.98
2022-08-16T21:03:09.263Z,51.54
2022-08-16T21:05:35.491Z,51.64
2022-08-16T21:08:03.187Z,52.00
2022-08-16T21:10:47.896Z,52.08
2022-08-16T21:13:13.820Z,52.11
2022-08-16T21:15:39.657Z,52.18
2022-08-16T21:18:05.651Z,53.23
2022-08-16T21:20:31.467Z,53.53
2022-08-16T21:23:03.218Z,53.59
2022-08-16T21:25:31.036Z,53.78
2022-08-16T21:28:39.061Z,53.57
2022-08-16T21:30:43.580Z,53.93
2022-08-16T21:33:13.138Z,53.40
2022-08-16T21:35:40.896Z,53.21
2022-08-16T21:38:29.574Z,52.73
2022-08-16T21:40:52.791Z,53.72
2022-08-16T21:43:22.072Z,53.51
2022-08-16T21:45:48.685Z,53.84
2022-08-16T21:48:34.735Z,53.54
2022-08-16T21:51:03.960Z,53.29
2022-08-16T21:53:30.079Z,53.62
2022-08-16T21:55:57.707Z,53.79
2022-08-16T21:58:24.623Z,52.88
2022-08-16T22:00:50.994Z,53.15
2022-08-16T22:03:17.562Z,53.25
2022-08-16T22:05:46.076Z,53.79
2022-08-16T22:08:32.020Z,53.05
2022-08-16T22:11:04.922Z,54.00
2022-08-16T22:13:34.430Z,54.26
2022-08-16T22:16:03.091Z,54.49
2022-08-16T22:18:28.991Z,54.58
2022-08-16T22:20:54.835Z,54.64
2022-08-16T22:23:23.642Z,54.67
2022-08-16T22:25:52.078Z,54.91
2022-08-16T22:28:19.845Z,54.40
2022-08-16T22:30:46.597Z,54.27
2022-08-16T22:33:25.522Z,55.03
2022-08-16T22:35:58.766Z,55.57
2022-08-16T22:38:53.852Z,55.77
2022-08-16T22:41:12.559Z,55.70
2022-08-16T22:43:38.880Z,55.46
2022-08-16T22:46:04.840Z,55.30
2022-08-16T22:48:31.568Z,56.03
2022-08-16T22:51:05.222Z,55.84
2022-08-16T22:53:31.889Z,55.75
2022-08-16T22:55:57.696Z,55.83
2022-08-16T22:58:23.624Z,55.79
2022-08-16T23:01:04.986Z,55.67
2022-08-16T23:03:30.840Z,56.05
2022-08-16T23:05:59.634Z,55.55
2022-08-16T23:08:39.541Z,54.73
2022-08-16T23:11:11.714Z,54.89
2022-08-16T23:13:38.311Z,55.56
2022-08-16T23:16:20.311Z,56.20
2022-08-16T23:18:47.798Z,56.41
2022-08-16T23:21:13.956Z,56.61
2022-08-16T23:23:39.887Z,56.56
2022-08-16T23:26:44.673Z,56.56
2022-08-16T23:28:53.599Z,57.21
2022-08-16T23:31:19.405Z,56.85
2022-08-16T23:33:45.435Z,57.47
2022-08-16T23:36:11.408Z,57.38
2022-08-16T23:38:39.363Z,56.87
2022-08-16T23:41:09.229Z,57.22
2022-08-16T23:43:40.890Z,56.85
2022-08-16T23:46:10.894Z,56.62
2022-08-16T23:49:56.906Z,57.41
2022-08-16T23:51:23.062Z,57.09
2022-08-16T23:53:49.424Z,57.61
2022-08-16T23:56:19.397Z,57.56
2022-08-16T23:58:48.459Z,59.02
